»·PEaware :: UAL1399 KFAT-KSFO

UAL1399 :: KFAT-KSFO

FLIGHT INFORMATION

Flight Status: Arrived
Operator:
United Airlines
More flights by this operator :: More flights under this callsign
Pilot: David C. (16084)
Aircraft: AIRBUS A320
(A320)
More flights by this aircraft type
Origin: KFAT Fresno Yosemite Intl
United States
Destination: KSFO San Francisco Intl
United States
More flights between these airports :: More routes between these airports
Route: +CZQ ALWYS CEDES ARCHI
File this flight plan on PilotEdge
Remarks:
Altitude:
(Current/Filed)
20,000ft
Speed:
(Current/Filed)
433kts
Departed: 10-May-18 09:12 AM
Arrived: 10-May-18 09:42 AM
Distance/Time
Traveled:
137nm/0:30
Distance/Time
To Go:
Arrived

Flight Plot

Page will automatically refresh every two minutes.

Flight plan parsing failed; only flown route is shown


Map Options




Map Legend


Flown Route
Filed Route
Departure Airport
Arrival Airport
Navaid (VOR, NDB)
Fix

Horizontal Profiles

Position Reports

Time Latitude Longitude Heading Altitude Ground
Speed
10-May-18 08:45 36.770645 -119.717527 36 344ft 0kts
10-May-18 08:46 36.770645 -119.717527 36 344ft 0kts
10-May-18 08:47 36.770645 -119.717527 36 344ft 0kts
10-May-18 08:48 36.770645 -119.717527 36 344ft 0kts
10-May-18 08:49 36.770645 -119.717527 36 344ft 0kts
10-May-18 08:50 36.770645 -119.717527 36 344ft 0kts
10-May-18 08:51 36.770645 -119.717527 36 344ft 0kts
10-May-18 08:52 36.770645 -119.717527 36 344ft 0kts
10-May-18 08:53 36.770645 -119.717527 36 344ft 0kts
10-May-18 08:54 36.770645 -119.717527 36 344ft 0kts
10-May-18 08:55 36.770645 -119.717527 36 344ft 0kts
10-May-18 08:56 36.770645 -119.717527 36 344ft 0kts
10-May-18 08:57 36.770645 -119.717527 36 344ft 0kts
10-May-18 08:58 36.770645 -119.717527 36 344ft 0kts
10-May-18 08:59 36.770645 -119.717527 36 344ft 0kts
10-May-18 09:00 36.770645 -119.717527 36 344ft 0kts
10-May-18 09:01 36.770645 -119.717527 36 344ft 0kts
10-May-18 09:02 36.770645 -119.717527 36 344ft 0kts
10-May-18 09:03 36.770645 -119.717527 36 344ft 0kts
10-May-18 09:04 36.770645 -119.717527 36 344ft 0kts
10-May-18 09:05 36.770645 -119.717527 36 344ft 0kts
10-May-18 09:06 36.770803 -119.713451 125 344ft 26kts
10-May-18 09:07 36.767595 -119.706123 87 344ft 22kts
10-May-18 09:08 36.768078 -119.704336 31 344ft 0kts
10-May-18 09:09 36.768078 -119.704336 31 344ft 0kts
10-May-18 09:10 36.768078 -119.704336 31 344ft 0kts
10-May-18 09:11 36.768208 -119.704237 30 344ft 5kts
10-May-18 09:12 36.773071 -119.710999 305 344ft 123kts
10-May-18 09:13 36.799744 -119.758288 305 2787ft 198kts
10-May-18 09:14 36.835181 -119.814342 311 6004ft 220kts
10-May-18 09:15 36.882000 -119.880169 311 8655ft 277kts
10-May-18 09:16 36.933692 -119.953329 311 12115ft 290kts
10-May-18 09:17 36.987934 -120.030264 311 13969ft 322kts
10-May-18 09:18 37.055932 -120.126220 311 13962ft 401kts
10-May-18 09:19 37.128866 -120.230623 311 13967ft 406kts
10-May-18 09:20 37.203223 -120.337150 311 13960ft 406kts
10-May-18 09:21 37.277327 -120.443529 311 13957ft 406kts
10-May-18 09:22 37.349938 -120.552144 298 13970ft 407kts
10-May-18 09:23 37.379653 -120.687785 283 13967ft 406kts
10-May-18 09:24 37.405116 -120.825268 283 13967ft 406kts
10-May-18 09:25 37.430459 -120.962104 283 13967ft 408kts
10-May-18 09:26 37.455872 -121.100177 283 13967ft 403kts
10-May-18 09:27 37.480841 -121.236744 284 13972ft 399kts
10-May-18 09:28 37.505555 -121.372837 284 13679ft 390kts
10-May-18 09:29 37.526776 -121.490671 283 11848ft 364kts
10-May-18 09:30 37.547193 -121.604916 282 11120ft 312kts
10-May-18 09:31 37.531672 -121.704623 254 10720ft 286kts
10-May-18 09:32 37.508716 -121.800736 254 8889ft 294kts
10-May-18 09:33 37.491923 -121.896271 275 7904ft 269kts
10-May-18 09:34 37.497347 -121.988530 275 6682ft 264kts
10-May-18 09:35 37.502689 -122.077170 280 5008ft 247kts
10-May-18 09:36 37.528083 -122.152691 297 3588ft 221kts
10-May-18 09:37 37.554553 -122.216235 297 2467ft 186kts
10-May-18 09:38 37.571203 -122.256039 296 1833ft 141kts
10-May-18 09:39 37.587526 -122.295054 295 1138ft 124kts
10-May-18 09:40 37.606089 -122.339373 294 375ft 121kts
10-May-18 09:41 37.619687 -122.371981 297 22ft 43kts
10-May-18 09:42 37.622208 -122.381944 254 22ft 20kts
10-May-18 09:43 37.621201 -122.383186 202 22ft 6kts
10-May-18 09:44 37.619181 -122.383491 288 22ft 2kts
10-May-18 09:45 37.619196 -122.383545 288 22ft 0kts

Navigation Log

Ident Type
Flight plan parsing failed, navigation log unavailable